Time;durP1;ratioP1;P1;durP2;ratioP2;P2;SDS_P1;SDS_P2;PMS_P1;PMS_P2;Temp;Humidity;BMP_temperature;BMP_pressure;BME280_temperature;BME280_humidity;BME280_pressure;Samples;Min_cycle;Max_cycle;Signal;HPM_P1;HPM_P2
2022/08/02 00:00:18;;;;;;;5.20;3.85;;;;;;;19.66;100.00;98027.50;4996553;28;20478;-76
2022/08/02 00:02:45;;;;;;;5.93;3.70;;;;;;;19.79;100.00;98034.63;5014029;28;20453;-75
2022/08/02 00:05:11;;;;;;;5.20;3.60;;;;;;;19.71;100.00;98043.91;5013902;28;20030;-73
2022/08/02 00:07:37;;;;;;;10.13;3.83;;;;;;;19.64;100.00;98044.50;5013890;28;20109;-74
2022/08/02 00:10:04;;;;;;;6.03;3.53;;;;;;;19.65;100.00;98036.97;5013965;28;20029;-74
2022/08/02 00:12:29;;;;;;;7.32;3.85;;;;;;;19.58;100.00;98032.03;5013770;28;20034;-74
2022/08/02 00:14:56;;;;;;;5.25;4.00;;;;;;;19.55;100.00;98035.50;5013716;28;20502;-74
2022/08/02 00:17:23;;;;;;;6.32;3.40;;;;;;;19.59;100.00;98041.16;5013879;28;20026;-75
2022/08/02 00:19:49;;;;;;;7.85;4.47;;;;;;;19.48;100.00;98046.41;5013634;28;20033;-74
2022/08/02 00:22:14;;;;;;;6.38;3.80;;;;;;;19.50;100.00;98038.53;5013695;28;20391;-74
2022/08/02 00:24:40;;;;;;;5.18;3.53;;;;;;;19.54;100.00;98044.22;5013352;28;20026;-74
2022/08/02 00:27:07;;;;;;;7.63;4.38;;;;;;;19.43;100.00;98043.06;5013767;28;20081;-75
2022/08/02 00:29:33;;;;;;;5.03;3.72;;;;;;;19.39;100.00;98044.91;5013634;28;20057;-74
2022/08/02 00:31:58;;;;;;;4.93;3.60;;;;;;;19.26;100.00;98056.00;4996137;28;20041;-75
2022/08/02 00:34:24;;;;;;;5.18;4.10;;;;;;;19.27;100.00;98051.28;5013954;28;20018;-75
2022/08/02 00:36:49;;;;;;;6.40;4.20;;;;;;;19.30;100.00;98066.41;4999906;28;20556;-74
2022/08/02 00:39:16;;;;;;;5.15;3.67;;;;;;;19.21;100.00;98067.34;5012703;28;20049;-75
2022/08/02 00:41:50;;;;;;;6.60;3.95;;;;;;;19.23;100.00;98073.34;5013191;28;20044;-74
2022/08/02 00:44:18;;;;;;;6.28;3.78;;;;;;;19.22;100.00;98091.16;5013293;28;20124;-75
2022/08/02 00:46:44;;;;;;;8.55;3.75;;;;;;;19.15;100.00;98096.50;5014174;28;20040;-76
2022/08/02 00:49:11;;;;;;;7.50;3.95;;;;;;;19.10;100.00;98102.28;5013752;28;20109;-75
2022/08/02 00:51:38;;;;;;;6.60;3.60;;;;;;;19.08;100.00;98103.75;5013889;28;20394;-75
2022/08/02 00:54:04;;;;;;;7.32;3.88;;;;;;;19.02;100.00;98085.72;5013344;28;20037;-74
2022/08/02 00:56:29;;;;;;;6.32;3.90;;;;;;;19.18;100.00;98095.78;5013142;28;20025;-75
2022/08/02 00:58:55;;;;;;;6.95;3.75;;;;;;;19.27;100.00;98090.91;4995443;28;20453;-75
2022/08/02 01:01:37;;;;;;;5.75;3.92;;;;;;;19.35;100.00;98088.38;5012941;28;20041;-76
2022/08/02 01:04:12;;;;;;;4.82;3.30;;;;;;;19.26;100.00;98082.97;5013064;28;20036;-75
2022/08/02 01:06:38;;;;;;;;;;;;;;;19.42;100.00;98105.28;5013332;28;20058;-74
2022/08/02 01:09:05;;;;;;;4.00;3.38;;;;;;;19.12;100.00;98105.50;5012597;28;19979;-74
2022/08/02 01:11:31;;;;;;;5.97;3.65;;;;;;;19.03;100.00;98104.00;5012693;28;20545;-76
2022/08/02 01:14:03;;;;;;;4.30;3.85;;;;;;;18.85;100.00;98111.75;4994940;28;20057;-75
2022/08/02 01:16:34;;;;;;;5.28;4.18;;;;;;;18.91;100.00;98099.28;5012703;28;20153;-76
2022/08/02 01:19:14;;;;;;;4.80;3.95;;;;;;;18.86;100.00;98118.88;5012419;28;20128;-75
2022/08/02 01:21:45;;;;;;;4.63;3.90;;;;;;;18.76;100.00;98129.63;5012714;28;20034;-74
2022/08/02 01:24:52;;;;;;;5.80;4.15;;;;;;;18.83;100.00;98130.66;5012654;28;20026;-75
2022/08/02 01:27:37;;;;;;;8.23;4.80;;;;;;;18.94;100.00;98140.16;5012408;28;20042;-74
2022/08/02 01:30:03;;;;;;;7.05;4.15;;;;;;;18.92;100.00;98150.78;5012390;28;20061;-74
2022/08/02 01:32:34;;;;;;;6.45;4.60;;;;;;;18.90;100.00;98142.00;5012530;28;20052;-74
2022/08/02 01:35:18;;;;;;;5.60;4.60;;;;;;;18.97;100.00;98141.44;5012254;28;20382;-75
2022/08/02 01:37:51;;;;;;;6.28;4.55;;;;;;;18.93;100.00;98137.72;5012414;28;20502;-74
2022/08/02 01:40:24;;;;;;;6.15;4.38;;;;;;;18.92;100.00;98139.69;5012224;28;20053;-74
2022/08/02 01:42:53;;;;;;;4.85;4.30;;;;;;;19.02;100.00;98139.22;5012191;28;20034;-76
2022/08/02 01:45:20;;;;;;;4.45;4.00;;;;;;;18.72;100.00;98140.59;5012103;28;20018;-76
2022/08/02 01:47:47;;;;;;;7.30;4.55;;;;;;;18.70;100.00;98154.78;5012194;28;20036;-74
2022/08/02 01:50:16;;;;;;;6.25;4.63;;;;;;;18.70;100.00;98145.69;5011852;28;20048;-75
2022/08/02 01:52:50;;;;;;;4.93;4.10;;;;;;;18.86;100.00;98146.59;5011730;28;20026;-74
2022/08/02 01:55:22;;;;;;;6.13;4.00;;;;;;;18.90;100.00;98142.00;5012029;28;20075;-74
2022/08/02 01:57:56;;;;;;;8.80;4.82;;;;;;;18.89;100.00;98140.38;5011774;28;20030;-75
2022/08/02 02:00:24;;;;;;;5.78;4.30;;;;;;;18.95;100.00;98133.44;5012009;28;20030;-75
2022/08/02 02:02:52;;;;;;;4.68;3.95;;;;;;;18.83;100.00;98136.22;5011917;28;20064;-75
2022/08/02 02:05:19;;;;;;;5.72;3.55;;;;;;;18.93;100.00;98146.84;5011858;28;20164;-75
2022/08/02 02:07:49;;;;;;;7.15;3.90;;;;;;;18.77;100.00;98143.13;5011826;28;20037;-75
2022/08/02 02:10:20;;;;;;;4.70;4.18;;;;;;;18.59;100.00;98134.22;5011589;28;20483;-76
2022/08/02 02:12:49;;;;;;;5.78;4.45;;;;;;;18.66;100.00;98144.75;5011378;28;20116;-74
2022/08/02 02:15:15;;;;;;;5.75;4.13;;;;;;;18.71;100.00;98134.25;4993938;28;20479;-74
2022/08/02 02:17:42;;;;;;;4.63;3.80;;;;;;;18.78;100.00;98128.13;5011458;28;20022;-74
2022/08/02 02:20:14;;;;;;;9.77;3.83;;;;;;;18.66;100.00;98126.16;5011691;28;20041;-74
2022/08/02 02:22:42;;;;;;;7.80;3.70;;;;;;;18.76;100.00;98133.22;5008876;28;20060;-73
2022/08/02 02:25:09;;;;;;;5.03;4.00;;;;;;;18.88;100.00;98137.97;4993917;28;20022;-74
2022/08/02 02:27:36;;;;;;;4.05;3.65;;;;;;;18.84;100.00;98120.38;5011346;28;20438;-75
2022/08/02 02:30:02;;;;;;;4.40;3.40;;;;;;;18.75;100.00;98106.66;5011403;28;20076;-75
2022/08/02 02:32:29;;;;;;;6.07;3.83;;;;;;;18.84;100.00;98115.66;5011474;28;20067;-73
2022/08/02 02:34:57;;;;;;;5.35;3.67;;;;;;;18.85;100.00;98106.19;5011249;28;20033;-74
2022/08/02 02:37:25;;;;;;;4.90;3.35;;;;;;;18.92;100.00;98105.63;5011082;28;20021;-74
2022/08/02 02:39:53;;;;;;;11.95;3.72;;;;;;;18.72;100.00;98096.25;5011022;28;20132;-74
2022/08/02 02:42:23;;;;;;;4.55;3.35;;;;;;;18.85;100.00;98089.56;5011340;28;20026;-74
2022/08/02 02:44:50;;;;;;;4.75;3.33;;;;;;;18.87;100.00;98095.56;5010668;28;20495;-74
2022/08/02 02:47:17;;;;;;;5.03;3.50;;;;;;;18.87;100.00;98094.75;5011569;28;20041;-74
2022/08/02 02:49:46;;;;;;;5.00;3.58;;;;;;;18.95;100.00;98093.84;5016247;28;20018;-75
2022/08/02 02:52:14;;;;;;;5.72;3.63;;;;;;;18.90;100.00;98094.06;5015198;28;20053;-74
2022/08/02 02:54:41;;;;;;;5.43;4.10;;;;;;;18.93;100.00;98101.69;5010911;28;20037;-74
2022/08/02 02:57:07;;;;;;;5.45;3.70;;;;;;;18.91;100.00;98104.81;5010839;28;20229;-75
2022/08/02 02:59:37;;;;;;;4.30;3.67;;;;;;;18.98;100.00;98101.47;5011292;28;20796;-74
2022/08/02 03:02:04;;;;;;;4.50;3.67;;;;;;;19.08;100.00;98098.22;5010329;28;20041;-76
2022/08/02 03:04:30;;;;;;;4.03;3.60;;;;;;;19.01;100.00;98096.03;5011039;28;20441;-75
2022/08/02 03:06:56;;;;;;;4.25;3.85;;;;;;;19.00;100.00;98085.28;4993363;28;20026;-74
2022/08/02 03:09:21;;;;;;;6.50;3.60;;;;;;;19.02;100.00;98092.09;5010938;28;20073;-74
2022/08/02 03:11:47;;;;;;;4.68;3.70;;;;;;;19.04;100.00;98089.00;5010847;28;20052;-74
2022/08/02 03:14:13;;;;;;;6.25;3.60;;;;;;;19.11;100.00;98081.69;4993518;28;20033;-75
2022/08/02 03:16:50;;;;;;;5.78;3.92;;;;;;;19.06;100.00;98061.72;5010874;28;20111;-75
2022/08/02 03:19:15;;;;;;;5.28;3.78;;;;;;;19.11;100.00;98067.81;5010798;28;20026;-74
2022/08/02 03:21:42;;;;;;;5.75;3.60;;;;;;;19.06;100.00;98056.97;5010771;28;20029;-74
2022/08/02 03:24:07;;;;;;;4.97;3.55;;;;;;;19.11;100.00;98055.91;5010780;28;20510;-75
2022/08/02 03:26:34;;;;;;;5.50;3.97;;;;;;;19.14;100.00;98047.72;5010326;28;20069;-74
2022/08/02 03:28:59;;;;;;;4.85;3.70;;;;;;;19.08;100.00;98043.56;5010706;28;20069;-74
2022/08/02 03:31:24;;;;;;;4.72;3.47;;;;;;;18.97;100.00;98039.66;5010756;28;20053;-75
2022/08/02 03:33:51;;;;;;;4.40;3.55;;;;;;;18.97;100.00;98024.97;5010602;28;20069;-75
2022/08/02 03:36:19;;;;;;;4.07;3.45;;;;;;;19.06;100.00;98029.25;5010613;28;20049;-74
2022/08/02 03:38:46;;;;;;;5.80;3.80;;;;;;;19.02;100.00;98031.09;5010447;28;20141;-74
2022/08/02 03:41:16;;;;;;;5.20;3.40;;;;;;;18.91;100.00;98035.50;5010589;28;20026;-75
2022/08/02 03:43:43;;;;;;;6.38;3.53;;;;;;;18.97;100.00;98036.88;5010359;28;20030;-75
2022/08/02 03:46:11;;;;;;;5.72;3.92;;;;;;;18.94;100.00;98034.81;5010579;28;20025;-76
2022/08/02 03:48:37;;;;;;;4.10;3.63;;;;;;;19.01;100.00;98032.28;5015800;28;20070;-78
2022/08/02 03:51:03;;;;;;;4.53;3.67;;;;;;;19.02;100.00;98033.06;5016409;28;20150;-75
2022/08/02 03:53:31;;;;;;;4.53;3.78;;;;;;;18.97;100.00;98025.78;5015308;28;20033;-77
2022/08/02 03:55:57;;;;;;;8.15;4.50;;;;;;;18.97;100.00;98017.47;5010915;28;20429;-74
2022/08/02 03:58:23;;;;;;;7.00;4.00;;;;;;;18.89;100.00;98003.75;5010550;28;20500;-74
2022/08/02 04:00:51;;;;;;;7.55;4.20;;;;;;;18.95;100.00;98008.69;5010279;28;20112;-74
2022/08/02 04:03:16;;;;;;;4.95;4.40;;;;;;;19.08;100.00;98015.00;5010304;28;20050;-73
2022/08/02 04:05:42;;;;;;;6.32;4.75;;;;;;;19.10;100.00;98004.41;5010398;28;20076;-74
2022/08/02 04:08:07;;;;;;;4.88;4.07;;;;;;;19.15;100.00;98009.69;5010208;28;20033;-75
2022/08/02 04:11:29;;;;;;;5.50;4.15;;;;;;;19.06;100.00;98014.56;5010322;28;20026;-75
2022/08/02 04:13:19;;;;;;;;;;;;;;;19.07;100.00;98018.97;5013131;28;20566;-75
2022/08/02 04:15:48;;;;;;;4.95;4.10;;;;;;;19.11;100.00;98037.31;5013968;28;19914;-74
2022/08/02 04:18:16;;;;;;;5.88;4.32;;;;;;;19.11;100.00;98042.88;5013695;28;20084;-74
2022/08/02 04:20:43;;;;;;;7.45;5.32;;;;;;;19.00;100.00;98038.97;5013610;28;20463;-76
2022/08/02 04:23:12;;;;;;;16.42;5.45;;;;;;;18.86;100.00;98040.47;5013525;28;20022;-74
2022/08/02 04:25:38;;;;;;;7.70;5.20;;;;;;;18.90;100.00;98042.19;5013539;28;20034;-76
2022/08/02 04:28:04;;;;;;;4.93;4.20;;;;;;;18.90;100.00;98058.03;5013855;28;20528;-74
2022/08/02 04:30:31;;;;;;;6.03;4.82;;;;;;;18.96;100.00;98060.22;5013606;28;20042;-76
2022/08/02 04:32:57;;;;;;;7.35;4.32;;;;;;;19.02;100.00;98058.81;5013310;28;20021;-75
2022/08/02 04:35:23;;;;;;;7.70;4.45;;;;;;;19.03;100.00;98057.69;5013425;28;20018;-75
2022/08/02 04:37:49;;;;;;;4.60;4.20;;;;;;;19.03;100.00;98054.09;5013309;28;20384;-75
2022/08/02 04:40:15;;;;;;;5.68;4.25;;;;;;;19.09;100.00;98047.97;4995660;28;20046;-76
2022/08/02 04:42:41;;;;;;;6.78;4.13;;;;;;;18.95;100.00;98044.72;5013016;28;20509;-75
2022/08/02 04:45:07;;;;;;;4.70;3.95;;;;;;;18.99;100.00;98050.38;5013469;28;20033;-75
2022/08/02 04:47:33;;;;;;;5.15;4.35;;;;;;;19.00;100.00;98063.91;4995582;28;20030;-74
2022/08/02 04:49:59;;;;;;;9.82;4.18;;;;;;;19.06;100.00;98062.53;5013141;28;20474;-75
2022/08/02 04:52:24;;;;;;;5.72;3.90;;;;;;;19.09;100.00;98067.38;5013153;28;20111;-74
2022/08/02 04:54:50;;;;;;;9.88;5.03;;;;;;;19.05;100.00;98072.00;5012975;28;20485;-75
2022/08/02 05:00:00;;;;;;;5.30;3.85;;;;;;;19.36;100.00;98076.91;5013268;28;20805;-74
2022/08/02 05:02:25;;;;;;;4.90;3.70;;;;;;;19.29;100.00;98070.34;5013440;28;20029;-74
2022/08/02 05:04:50;;;;;;;4.88;3.95;;;;;;;19.19;100.00;98072.44;5019482;28;20044;-76
2022/08/02 05:07:16;;;;;;;6.25;4.18;;;;;;;19.32;100.00;98072.44;5020676;28;20040;-74
2022/08/02 05:09:41;;;;;;;5.35;3.75;;;;;;;19.51;100.00;98073.47;5013035;28;20030;-76
2022/08/02 05:12:07;;;;;;;4.88;3.55;;;;;;;19.57;100.00;98077.63;5013175;28;20053;-76
2022/08/02 05:14:32;;;;;;;6.13;3.35;;;;;;;19.67;100.00;98073.53;5012658;28;20056;-74
2022/08/02 05:16:58;;;;;;;4.97;3.65;;;;;;;19.86;100.00;98073.69;5012514;28;20116;-75
2022/08/02 05:19:23;;;;;;;4.38;3.50;;;;;;;20.06;100.00;98083.78;5012646;28;20061;-74
2022/08/02 05:21:48;;;;;;;4.82;3.70;;;;;;;20.09;100.00;98091.41;5012652;28;20022;-75
2022/08/02 05:24:14;;;;;;;4.45;3.40;;;;;;;20.10;100.00;98086.66;5011700;28;20045;-75
2022/08/02 05:26:39;;;;;;;4.55;3.50;;;;;;;20.25;100.00;98092.25;5012731;28;20029;-75
2022/08/02 05:29:04;;;;;;;5.28;3.58;;;;;;;20.26;100.00;98091.16;5012356;28;20030;-74
2022/08/02 05:31:30;;;;;;;5.82;3.38;;;;;;;20.37;100.00;98087.81;5012325;28;20030;-73
2022/08/02 05:33:56;;;;;;;5.20;3.55;;;;;;;20.27;100.00;98083.59;4994732;28;20022;-75
2022/08/02 05:36:21;;;;;;;5.78;3.45;;;;;;;20.22;100.00;98081.88;5012286;28;20564;-75
2022/08/02 05:38:46;;;;;;;5.70;2.90;;;;;;;20.26;100.00;98077.25;5012000;28;20467;-74
2022/08/02 05:41:12;;;;;;;5.35;3.97;;;;;;;20.34;100.00;98083.78;5012490;28;20038;-75
2022/08/02 05:43:37;;;;;;;6.47;3.80;;;;;;;20.27;100.00;98078.84;5012344;28;20109;-77
2022/08/02 05:46:02;;;;;;;13.82;3.35;;;;;;;20.34;100.00;98071.88;5012372;28;20064;-76
2022/08/02 05:48:28;;;;;;;5.20;3.35;;;;;;;20.26;100.00;98070.88;5012449;28;20030;-74
2022/08/02 05:50:58;;;;;;;8.40;3.58;;;;;;;20.29;100.00;98065.44;5012477;28;20026;-74
2022/08/02 05:53:55;;;;;;;4.95;3.40;;;;;;;20.34;100.00;98074.66;5012007;28;20026;-76
2022/08/02 05:56:30;;;;;;;8.13;3.70;;;;;;;20.48;100.00;98080.59;5011823;28;20471;-74
2022/08/02 05:58:59;;;;;;;5.22;3.40;;;;;;;20.47;100.00;98078.97;5011880;28;20110;-74
2022/08/02 06:01:47;;;;;;;8.32;3.13;;;;;;;20.69;100.00;98075.59;5011853;28;20125;-74
2022/08/02 06:04:23;;;;;;;5.40;3.35;;;;;;;20.63;100.00;98086.16;5011848;28;20029;-75
2022/08/02 06:06:55;;;;;;;8.98;3.80;;;;;;;20.73;100.00;98088.41;4993995;28;20034;-74
2022/08/02 06:09:22;;;;;;;4.97;3.58;;;;;;;20.77;100.00;98086.50;5011633;28;20047;-73
2022/08/02 06:11:51;;;;;;;6.88;4.00;;;;;;;21.07;100.00;98089.66;4993846;28;20449;-74
2022/08/02 06:14:18;;;;;;;5.95;3.75;;;;;;;21.03;100.00;98083.19;5011424;28;20033;-74
2022/08/02 06:16:44;;;;;;;6.80;3.92;;;;;;;21.07;100.00;98089.66;5011815;28;20026;-74
2022/08/02 06:19:12;;;;;;;4.30;3.58;;;;;;;20.96;100.00;98096.09;5011969;28;20084;-76
2022/08/02 06:21:41;;;;;;;3.63;3.22;;;;;;;21.06;100.00;98101.94;5011573;28;20498;-75
2022/08/02 06:24:12;;;;;;;9.10;2.97;;;;;;;21.14;100.00;98111.31;5011391;28;20032;-75
2022/08/02 06:26:38;;;;;;;3.97;3.30;;;;;;;21.13;100.00;98106.91;5011354;28;20022;-76
2022/08/02 06:29:03;;;;;;;5.38;3.50;;;;;;;21.10;100.00;98113.19;5011402;28;20076;-75
2022/08/02 06:31:29;;;;;;;3.72;2.95;;;;;;;21.13;100.00;98106.91;5011170;28;20120;-75
2022/08/02 06:33:55;;;;;;;6.15;3.47;;;;;;;20.96;100.00;98127.50;5011252;28;20054;-75
2022/08/02 06:36:33;;;;;;;5.32;3.50;;;;;;;20.76;100.00;98129.41;5011328;28;20032;-75
2022/08/02 06:39:27;;;;;;;4.35;3.20;;;;;;;20.62;100.00;98122.66;5010947;28;20443;-74
2022/08/02 06:41:57;;;;;;;3.70;3.20;;;;;;;20.59;100.00;98123.38;5010981;28;20026;-75
2022/08/02 06:44:23;;;;;;;3.72;3.17;;;;;;;20.76;100.00;98117.47;4993067;28;20030;-76
2022/08/02 06:46:49;;;;;;;3.92;3.30;;;;;;;20.90;100.00;98114.22;5011068;28;20042;-76
2022/08/02 06:49:14;;;;;;;4.25;3.05;;;;;;;20.76;100.00;98123.03;4993458;28;20169;-75
2022/08/02 06:51:39;;;;;;;4.13;3.10;;;;;;;20.75;100.00;98124.19;5011259;28;20026;-75
2022/08/02 06:54:05;;;;;;;4.85;3.53;;;;;;;20.73;100.00;98126.53;5011271;28;20030;-76
2022/08/02 06:56:30;;;;;;;4.55;3.42;;;;;;;20.56;100.00;98118.53;4993267;28;20414;-75
2022/08/02 06:58:57;;;;;;;5.10;3.13;;;;;;;20.56;100.00;98121.31;4992636;28;20491;-75
2022/08/02 07:01:22;;;;;;;4.20;3.40;;;;;;;20.62;100.00;98128.22;5011051;28;20104;-75
2022/08/02 07:03:48;;;;;;;5.72;3.30;;;;;;;20.70;100.00;98130.03;5010838;28;20125;-74
2022/08/02 07:06:13;;;;;;;4.15;3.45;;;;;;;20.56;100.00;98118.53;5010812;28;20033;-75
2022/08/02 07:08:39;;;;;;;6.15;3.20;;;;;;;20.52;100.00;98123.16;5010628;28;20372;-75
2022/08/02 07:11:05;;;;;;;5.60;3.45;;;;;;;20.55;100.00;98128.03;5010335;28;20042;-79
2022/08/02 07:13:30;;;;;;;4.90;2.92;;;;;;;20.61;100.00;98126.63;5010372;28;20108;-75
2022/08/02 07:15:56;;;;;;;4.68;3.38;;;;;;;20.70;100.00;98124.47;5010478;28;20104;-74
2022/08/02 07:18:23;;;;;;;4.55;3.20;;;;;;;20.87;100.00;98124.09;5010967;28;20038;-75
2022/08/02 07:20:49;;;;;;;6.85;3.45;;;;;;;20.86;100.00;98114.16;5015982;28;20030;-75
2022/08/02 07:23:14;;;;;;;3.90;3.20;;;;;;;21.04;100.00;98126.53;5012938;28;20056;-75
2022/08/02 07:25:40;;;;;;;4.60;3.33;;;;;;;21.10;100.00;98127.09;5010723;28;20034;-76
2022/08/02 07:28:08;;;;;;;5.22;3.50;;;;;;;21.13;100.00;98129.97;5010263;28;20029;-74
2022/08/02 07:30:34;;;;;;;7.50;3.72;;;;;;;21.13;100.00;98127.19;5010470;28;20037;-75
2022/08/02 07:33:01;;;;;;;6.30;3.28;;;;;;;20.96;100.00;98144.22;5010499;28;20518;-74
2022/08/02 07:35:26;;;;;;;3.78;3.25;;;;;;;21.05;100.00;98150.41;5010343;28;20018;-75
2022/08/02 07:37:52;;;;;;;3.80;3.25;;;;;;;20.90;100.00;98145.63;5010481;28;20029;-74
2022/08/02 07:40:19;;;;;;;5.93;3.35;;;;;;;21.08;100.00;98146.91;4992430;28;20494;-74
2022/08/02 07:42:46;;;;;;;5.57;3.22;;;;;;;21.04;100.00;98150.78;5010262;28;20038;-75
2022/08/02 07:45:12;;;;;;;6.63;3.13;;;;;;;20.89;100.00;98143.22;5010450;28;20026;-75
2022/08/02 07:47:42;;;;;;;4.63;3.40;;;;;;;20.82;100.00;98149.41;5012245;28;20029;-75
2022/08/02 07:50:09;;;;;;;5.65;3.25;;;;;;;21.02;100.00;98153.13;5013832;28;20419;-74
2022/08/02 07:52:34;;;;;;;4.03;3.35;;;;;;;21.08;100.00;98141.31;5013627;28;20026;-75
2022/08/02 07:55:00;;;;;;;4.00;3.20;;;;;;;21.05;100.00;98144.03;4996212;28;21524;-74
2022/08/02 07:57:25;;;;;;;4.38;2.97;;;;;;;20.91;100.00;98136.13;5013694;28;20399;-74
2022/08/02 07:59:51;;;;;;;4.30;3.03;;;;;;;20.77;100.00;98149.66;5013673;28;20463;-74
2022/08/02 08:02:16;;;;;;;4.85;2.97;;;;;;;20.89;100.00;98146.00;5013641;28;20443;-74
2022/08/02 08:04:42;;;;;;;3.85;3.22;;;;;;;20.99;100.00;98137.94;4995908;28;20079;-74
2022/08/02 08:07:10;;;;;;;6.65;3.30;;;;;;;21.10;100.00;98152.97;5013893;28;20037;-74
2022/08/02 08:09:40;;;;;;;3.40;2.80;;;;;;;21.00;100.00;98147.91;5013509;28;20057;-76
2022/08/02 08:12:08;;;;;;;4.55;2.97;;;;;;;21.26;100.00;98148.19;5013589;28;20018;-75
2022/08/02 08:14:33;;;;;;;3.25;2.78;;;;;;;21.48;100.00;98143.13;5013544;28;20451;-76
2022/08/02 08:16:59;;;;;;;3.45;2.95;;;;;;;21.76;100.00;98152.13;5013801;28;20060;-75
2022/08/02 08:19:24;;;;;;;3.60;3.10;;;;;;;21.93;100.00;98157.31;4995850;28;20080;-76
2022/08/02 08:21:50;;;;;;;4.30;2.85;;;;;;;22.00;100.00;98149.13;5013722;28;20026;-75
2022/08/02 08:24:15;;;;;;;3.83;3.10;;;;;;;22.28;100.00;98154.47;5014310;28;20497;-75
2022/08/02 08:26:41;;;;;;;4.43;3.63;;;;;;;22.21;100.00;98148.78;5019091;28;20041;-74
2022/08/02 08:29:06;;;;;;;5.05;3.20;;;;;;;22.78;100.00;98150.69;5019125;28;20045;-74
2022/08/02 08:31:35;;;;;;;3.70;3.03;;;;;;;23.22;100.00;98148.28;5017346;28;20029;-75
2022/08/02 08:34:01;;;;;;;7.20;3.08;;;;;;;23.97;100.00;98142.66;5013476;28;20034;-75
2022/08/02 08:36:27;;;;;;;5.43;3.30;;;;;;;24.97;94.62;98142.69;5013537;28;20526;-76
2022/08/02 08:38:53;;;;;;;10.18;3.33;;;;;;;25.77;88.23;98143.75;5013108;28;20145;-75
2022/08/02 08:41:19;;;;;;;4.93;3.20;;;;;;;26.28;84.78;98138.84;5013418;28;20105;-75
2022/08/02 08:43:46;;;;;;;7.95;3.25;;;;;;;28.01;75.40;98143.84;4995344;28;20486;-75
2022/08/02 08:46:23;;;;;;;5.45;3.17;;;;;;;28.27;73.36;98149.03;5013730;28;20119;-75
2022/08/02 08:48:57;;;;;;;4.95;3.20;;;;;;;28.78;70.38;98145.59;5013416;28;20029;-76
2022/08/02 08:51:25;;;;;;;3.40;2.83;;;;;;;28.18;68.07;98143.84;4995896;28;20034;-75
2022/08/02 08:53:53;;;;;;;3.63;2.78;;;;;;;28.47;66.00;98144.53;5013134;28;20510;-74
2022/08/02 08:56:19;;;;;;;3.92;3.10;;;;;;;29.31;62.43;98148.09;5013131;28;20513;-75
2022/08/02 08:58:48;;;;;;;3.67;2.80;;;;;;;28.46;64.42;98142.91;4994238;28;20037;-75
2022/08/02 09:01:15;;;;;;;4.55;2.83;;;;;;;29.18;62.59;98146.94;5013011;28;20112;-74
2022/08/02 09:03:41;;;;;;;4.82;2.72;;;;;;;30.64;56.37;98153.56;5012989;28;20026;-74
2022/08/02 09:06:07;;;;;;;7.88;3.72;;;;;;;28.74;61.45;98155.28;5012731;28;20030;-75
2022/08/02 09:08:32;;;;;;;4.80;3.08;;;;;;;29.88;58.49;98156.88;5013188;28;20443;-75
2022/08/02 09:10:58;;;;;;;4.25;3.40;;;;;;;31.49;52.75;98154.34;5012784;28;20101;-74
2022/08/02 09:13:28;;;;;;;6.68;3.20;;;;;;;33.91;47.24;98164.63;5012639;28;20403;-74
2022/08/02 09:15:57;;;;;;;6.50;3.60;;;;;;;36.53;38.45;98167.78;5012535;28;20038;-75
2022/08/02 09:18:38;;;;;;;6.13;3.38;;;;;;;35.41;38.50;98157.00;5012400;28;20053;-74
2022/08/02 09:21:06;;;;;;;15.95;3.40;;;;;;;34.91;40.37;98163.44;5012398;28;20494;-75
2022/08/02 09:23:43;;;;;;;3.55;3.03;;;;;;;32.53;44.71;98163.38;5012464;28;20720;-73
2022/08/02 09:26:11;;;;;;;5.70;3.40;;;;;;;31.21;48.22;98149.94;5012462;28;20033;-75
2022/08/02 09:28:40;;;;;;;3.85;3.20;;;;;;;30.65;50.67;98157.19;4994900;28;20506;-74
2022/08/02 09:31:08;;;;;;;3.70;3.30;;;;;;;30.61;51.59;98139.50;5012263;28;20368;-73
2022/08/02 09:33:35;;;;;;;4.60;3.22;;;;;;;30.75;50.54;98136.47;5013314;28;20025;-74
2022/08/02 09:36:06;;;;;;;7.15;3.47;;;;;;;29.79;53.12;98139.56;5019124;28;20064;-75
2022/08/02 09:38:33;;;;;;;5.53;3.63;;;;;;;29.34;55.36;98135.97;5015371;28;20030;-74
2022/08/02 09:40:59;;;;;;;4.88;3.20;;;;;;;30.74;50.44;98130.03;4994659;28;20161;-73
2022/08/02 09:43:35;;;;;;;5.10;3.58;;;;;;;31.59;46.61;98134.41;5012052;28;20030;-75
2022/08/02 09:46:24;;;;;;;6.38;3.30;;;;;;;32.05;45.27;98136.41;5011924;28;20140;-75
2022/08/02 09:48:54;;;;;;;4.40;3.35;;;;;;;33.87;41.36;98143.25;5011850;28;20419;-74
2022/08/02 09:51:46;;;;;;;3.88;3.03;;;;;;;35.25;37.84;98142.09;5011718;28;20033;-74
2022/08/02 09:54:16;;;;;;;7.07;3.63;;;;;;;35.45;38.28;98146.28;5007883;28;20579;-73
2022/08/02 09:56:50;;;;;;;5.55;3.60;;;;;;;35.59;37.56;98141.41;5011696;28;20029;-74
2022/08/02 09:59:17;;;;;;;5.30;3.17;;;;;;;34.81;39.19;98124.75;5011569;28;20478;-75
2022/08/02 10:01:44;;;;;;;6.82;3.40;;;;;;;35.49;38.49;98134.78;5011827;28;20532;-74
2022/08/02 10:04:12;;;;;;;4.10;3.58;;;;;;;34.50;40.23;98132.16;5011491;28;20478;-75
2022/08/02 10:06:38;;;;;;;4.20;3.25;;;;;;;35.72;38.29;98134.41;5011368;28;20529;-73
2022/08/02 10:09:05;;;;;;;8.48;3.25;;;;;;;35.69;37.71;98138.19;5011587;28;20076;-76
2022/08/02 10:11:31;;;;;;;4.97;3.25;;;;;;;35.84;37.18;98127.88;5011352;28;20037;-74
2022/08/02 10:13:57;;;;;;;3.85;3.10;;;;;;;35.67;37.13;98135.00;5011642;28;20014;-74
2022/08/02 10:16:23;;;;;;;3.70;3.20;;;;;;;36.00;36.66;98130.56;5011268;28;20026;-74
2022/08/02 10:18:51;;;;;;;4.00;3.42;;;;;;;35.46;36.51;98135.72;5011495;28;20033;-75
2022/08/02 10:21:32;;;;;;;4.15;3.17;;;;;;;35.51;36.27;98126.59;5011177;28;20065;-76
2022/08/02 10:24:09;;;;;;;3.70;3.25;;;;;;;34.54;37.75;98118.66;5011483;28;20030;-74
2022/08/02 10:26:38;;;;;;;4.93;3.15;;;;;;;33.10;41.18;98111.94;5011200;28;20025;-75
2022/08/02 10:29:04;;;;;;;4.28;3.40;;;;;;;33.42;40.06;98114.78;5011016;28;20123;-76
2022/08/02 10:31:48;;;;;;;5.43;3.55;;;;;;;32.84;40.90;98108.84;5011007;28;20489;-74
2022/08/02 10:34:19;;;;;;;3.22;2.92;;;;;;;32.78;41.49;98102.13;5011247;28;20025;-76
2022/08/02 10:36:46;;;;;;;4.70;2.97;;;;;;;33.16;41.70;98110.16;4993578;28;20109;-74
2022/08/02 10:39:12;;;;;;;3.92;3.45;;;;;;;34.50;38.46;98106.56;5010874;28;20072;-74
2022/08/02 10:41:41;;;;;;;4.43;3.10;;;;;;;34.91;37.01;98112.25;4993203;28;20045;-74
2022/08/02 10:44:07;;;;;;;4.25;3.20;;;;;;;33.50;40.16;98099.16;5011033;28;20030;-73
2022/08/02 10:46:34;;;;;;;4.60;3.65;;;;;;;32.45;42.02;98091.91;5010862;28;20032;-73
2022/08/02 10:49:09;;;;;;;3.53;2.90;;;;;;;31.41;44.60;98085.00;5010961;28;20030;-75
2022/08/02 10:51:53;;;;;;;5.28;3.70;;;;;;;30.18;46.92;98079.91;5010851;28;20026;-73
2022/08/02 10:54:21;;;;;;;4.78;3.95;;;;;;;29.72;49.07;98077.59;5010884;28;20044;-76
2022/08/02 10:56:49;;;;;;;3.53;3.03;;;;;;;28.56;51.13;98080.13;5011178;28;20049;-74
2022/08/02 10:59:27;;;;;;;6.30;4.30;;;;;;;27.94;53.69;98068.72;5010970;28;20038;-75
2022/08/02 11:02:03;;;;;;;4.85;2.92;;;;;;;27.71;51.69;98067.59;5010914;28;20061;-76
2022/08/02 11:04:54;;;;;;;3.92;2.80;;;;;;;27.64;52.48;98066.41;4993589;28;20438;-75
2022/08/02 11:07:31;;;;;;;3.20;2.70;;;;;;;27.84;52.29;98057.53;5011109;28;20040;-75
2022/08/02 11:09:59;;;;;;;3.17;2.63;;;;;;;28.21;51.63;98057.78;5011198;28;20064;-76
2022/08/02 11:12:26;;;;;;;4.07;3.03;;;;;;;28.35;51.13;98052.06;5010940;28;20018;-75
2022/08/02 11:14:58;;;;;;;5.82;3.55;;;;;;;28.00;50.84;98060.69;5010203;28;20045;-74
2022/08/02 11:17:24;;;;;;;4.35;3.30;;;;;;;27.99;50.46;98050.63;5010709;28;20102;-75
2022/08/02 11:20:11;;;;;;;4.45;3.20;;;;;;;27.68;52.11;98049.53;5010787;28;20368;-76
2022/08/02 11:22:41;;;;;;;3.50;3.05;;;;;;;27.75;51.31;98043.09;5012453;28;20101;-75
2022/08/02 11:25:22;;;;;;;5.75;3.50;;;;;;;27.76;51.64;98047.50;5015041;28;20208;-76
2022/08/02 11:27:47;;;;;;;4.30;3.05;;;;;;;27.86;52.32;98046.66;5014848;28;20471;-74
2022/08/02 11:30:14;;;;;;;4.93;3.53;;;;;;;28.08;51.25;98046.19;5014827;28;20026;-76
2022/08/02 11:32:40;;;;;;;6.18;3.30;;;;;;;28.07;51.24;98035.34;5014908;28;20038;-76
2022/08/02 11:35:07;;;;;;;4.35;3.50;;;;;;;28.25;51.02;98036.06;5014702;28;20077;-75